createdAt,value
2022-11-23T00:02:42.907Z,21.04
2022-11-23T00:07:46.013Z,21.05
2022-11-23T00:12:50.240Z,21.04
2022-11-23T00:17:53.074Z,21.03
2022-11-23T00:22:56.258Z,21.02
2022-11-23T00:28:00.353Z,21.04
2022-11-23T00:33:03.137Z,21.02
2022-11-23T00:38:07.152Z,21.03
2022-11-23T00:43:11.303Z,21.03
2022-11-23T00:48:14.214Z,20.94
2022-11-23T00:53:17.045Z,20.97
2022-11-23T00:58:21.295Z,20.94
2022-11-23T01:03:24.302Z,20.91
2022-11-23T01:08:27.537Z,20.83
2022-11-23T01:13:31.744Z,20.85
2022-11-23T01:18:34.699Z,20.81
2022-11-23T01:23:37.652Z,20.78
2022-11-23T01:28:42.192Z,20.79
2022-11-23T01:33:44.993Z,20.78
2022-11-23T01:38:48.543Z,20.74
2022-11-23T01:43:52.694Z,20.73
2022-11-23T01:48:57.192Z,20.71
2022-11-23T01:54:02.074Z,20.71
2022-11-23T01:59:08.497Z,20.68
2022-11-23T02:04:14.092Z,20.70
2022-11-23T02:09:20.782Z,20.67
2022-11-23T02:14:24.964Z,20.70
2022-11-23T02:19:33.917Z,20.66
2022-11-23T02:24:38.308Z,20.66
2022-11-23T02:29:42.409Z,20.63
2022-11-23T02:34:45.187Z,20.61
2022-11-23T02:39:49.265Z,20.63
2022-11-23T02:44:56.553Z,20.62
2022-11-23T02:49:59.362Z,20.60
2022-11-23T02:55:02.205Z,20.62
2022-11-23T03:00:08.892Z,20.57
2022-11-23T03:05:12.096Z,20.59
2022-11-23T03:10:15.114Z,20.55
2022-11-23T03:15:21.661Z,20.56
2022-11-23T03:20:25.352Z,20.56
2022-11-23T03:25:29.274Z,20.58
2022-11-23T03:30:35.659Z,20.56
2022-11-23T03:35:40.878Z,20.54
2022-11-23T03:41:09.837Z,20.53
2022-11-23T03:46:26.529Z,20.56
2022-11-23T03:51:29.381Z,20.57
2022-11-23T03:56:32.655Z,20.53
2022-11-23T04:01:37.107Z,20.50
2022-11-23T04:06:43.666Z,20.53
2022-11-23T04:11:53.714Z,20.52
2022-11-23T04:16:57.887Z,20.52
2022-11-23T04:22:01.052Z,20.47
2022-11-23T04:27:08.970Z,20.52
2022-11-23T04:32:14.475Z,20.52
2022-11-23T04:37:17.518Z,20.57
2022-11-23T04:42:20.819Z,20.57
2022-11-23T04:47:36.902Z,20.54
2022-11-23T04:52:44.892Z,20.57
2022-11-23T04:57:53.372Z,20.55
2022-11-23T05:03:00.107Z,20.54
2022-11-23T05:08:05.893Z,20.54
2022-11-23T05:13:21.277Z,20.54
2022-11-23T05:18:26.637Z,20.56
2022-11-23T05:23:29.882Z,20.54
2022-11-23T05:28:41.892Z,20.52
2022-11-23T05:33:50.235Z,20.51
2022-11-23T05:39:00.402Z,20.51
2022-11-23T05:44:07.636Z,20.50
2022-11-23T05:49:12.440Z,20.49
2022-11-23T05:54:16.207Z,20.50
2022-11-23T05:59:26.495Z,20.49
2022-11-23T06:04:36.516Z,20.48
2022-11-23T06:09:41.949Z,20.50
2022-11-23T06:14:47.495Z,20.49
2022-11-23T06:19:54.597Z,20.48
2022-11-23T06:24:58.912Z,20.46
2022-11-23T06:30:15.838Z,20.44
2022-11-23T06:35:20.587Z,20.44
2022-11-23T06:40:23.980Z,20.43
2022-11-23T06:45:28.214Z,20.43
2022-11-23T06:50:36.045Z,20.43
2022-11-23T06:55:39.953Z,20.42
2022-11-23T07:00:44.205Z,20.33
2022-11-23T07:05:49.276Z,20.34
2022-11-23T07:10:53.690Z,20.31
2022-11-23T07:15:58.028Z,20.33
2022-11-23T07:21:02.330Z,20.36
2022-11-23T07:26:05.293Z,20.36
2022-11-23T07:31:08.217Z,20.40
2022-11-23T07:36:12.577Z,20.36
2022-11-23T07:41:17.464Z,20.37
2022-11-23T07:46:46.491Z,20.37
2022-11-23T07:51:50.609Z,20.37
2022-11-23T07:56:53.351Z,20.36
2022-11-23T08:01:58.582Z,20.31
2022-11-23T08:07:03.958Z,20.32
2022-11-23T08:12:07.517Z,20.27
2022-11-23T08:17:10.835Z,20.24
2022-11-23T08:22:15.987Z,20.22
2022-11-23T08:27:18.929Z,20.15
2022-11-23T08:32:21.680Z,20.14
2022-11-23T08:37:25.831Z,20.07
2022-11-23T08:42:28.578Z,20.04
2022-11-23T08:47:32.428Z,20.01
2022-11-23T08:52:36.667Z,19.97
2022-11-23T08:57:39.471Z,19.91
2022-11-23T09:02:42.241Z,19.87
2022-11-23T09:07:46.441Z,19.88
2022-11-23T09:12:49.401Z,19.85
2022-11-23T09:17:52.164Z,19.84
2022-11-23T09:22:56.481Z,19.80
2022-11-23T09:27:59.723Z,19.78
2022-11-23T09:33:02.485Z,19.77
2022-11-23T09:38:06.787Z,19.77
2022-11-23T09:43:18.317Z,19.72
2022-11-23T09:48:35.787Z,19.74
2022-11-23T09:53:41.357Z,19.77
2022-11-23T09:58:44.191Z,19.77
2022-11-23T10:03:49.189Z,19.75
2022-11-23T10:09:00.875Z,19.77
2022-11-23T10:14:09.675Z,19.76
2022-11-23T10:19:15.057Z,19.72
2022-11-23T10:24:20.687Z,19.71
2022-11-23T10:29:27.993Z,19.73
2022-11-23T10:34:47.430Z,19.71
2022-11-23T10:39:51.551Z,19.80
2022-11-23T10:44:54.376Z,19.78
2022-11-23T10:49:58.494Z,18.73
2022-11-23T10:55:03.445Z,18.25
2022-11-23T11:00:15.216Z,18.05
2022-11-23T11:06:06.854Z,18.19
2022-11-23T11:11:00.320Z,18.44
2022-11-23T11:16:03.867Z,18.65
2022-11-23T11:21:07.823Z,18.86
2022-11-23T11:26:19.711Z,18.93
2022-11-23T11:31:45.109Z,19.05
2022-11-23T11:36:51.396Z,19.05
2022-11-23T11:41:55.555Z,19.18
2022-11-23T11:47:00.625Z,19.14
2022-11-23T11:52:06.549Z,19.19
2022-11-23T11:57:17.029Z,19.21
2022-11-23T12:02:23.104Z,19.25
2022-11-23T12:07:29.529Z,19.27
2022-11-23T12:12:37.758Z,19.29
2022-11-23T12:17:55.565Z,19.34
2022-11-23T12:23:06.090Z,19.35
2022-11-23T12:28:28.847Z,19.41
2022-11-23T12:39:03.712Z,19.50
2022-11-23T12:44:40.296Z,19.53
2022-11-23T12:49:45.341Z,19.51
2022-11-23T12:54:54.175Z,19.53
2022-11-23T13:00:02.464Z,19.56
2022-11-23T13:05:31.840Z,19.61
2022-11-23T13:10:51.857Z,19.61
2022-11-23T13:16:32.590Z,19.59
2022-11-23T13:21:39.870Z,19.65
2022-11-23T13:26:43.044Z,19.59
2022-11-23T13:31:47.467Z,19.58
2022-11-23T13:37:15.536Z,19.55
2022-11-23T13:42:18.403Z,19.63
2022-11-23T13:47:22.594Z,19.63
2022-11-23T13:52:27.627Z,19.56
2022-11-23T13:57:30.448Z,19.49
2022-11-23T14:02:34.770Z,19.46
2022-11-23T14:07:41.408Z,19.49
2022-11-23T14:12:47.893Z,19.49
2022-11-23T14:18:10.652Z,19.44
2022-11-23T14:23:44.137Z,19.49
2022-11-23T14:28:53.799Z,19.47
2022-11-23T14:34:02.144Z,19.41
2022-11-23T14:39:30.959Z,19.34
2022-11-23T14:44:38.390Z,19.30
2022-11-23T14:49:51.292Z,19.29
2022-11-23T14:54:54.983Z,19.25
2022-11-23T14:59:59.107Z,19.19
2022-11-23T15:05:06.634Z,19.18
2022-11-23T15:10:13.315Z,19.14
2022-11-23T15:15:19.296Z,19.09
2022-11-23T15:20:23.511Z,19.04
2022-11-23T15:25:27.687Z,19.00
2022-11-23T15:30:31.378Z,18.96
2022-11-23T15:35:36.849Z,18.93
2022-11-23T15:40:40.388Z,18.92
2022-11-23T15:46:02.153Z,18.90
2022-11-23T15:51:08.348Z,18.87
2022-11-23T15:56:15.184Z,18.85
2022-11-23T16:01:18.035Z,18.83
2022-11-23T16:06:29.619Z,18.83
2022-11-23T16:11:33.960Z,18.82
2022-11-23T16:16:40.276Z,18.92
2022-11-23T16:21:46.951Z,19.01
2022-11-23T16:26:49.758Z,19.12
2022-11-23T16:31:57.385Z,19.25
2022-11-23T16:37:03.850Z,19.38
2022-11-23T16:42:06.789Z,19.43
2022-11-23T16:47:23.767Z,19.56
2022-11-23T16:52:29.262Z,19.66
2022-11-23T16:57:33.034Z,19.71
2022-11-23T17:02:35.948Z,19.84
2022-11-23T17:07:40.381Z,19.93
2022-11-23T17:12:47.927Z,19.96
2022-11-23T17:17:50.757Z,19.97
2022-11-23T17:23:00.361Z,20.03
2022-11-23T17:28:03.725Z,20.08
2022-11-23T17:33:06.605Z,20.05
2022-11-23T17:38:14.158Z,20.02
2022-11-23T17:43:16.964Z,20.05
2022-11-23T17:48:20.486Z,20.09
2022-11-23T17:53:25.687Z,20.14
2022-11-23T17:58:28.543Z,20.11
2022-11-23T18:03:31.473Z,20.21
2022-11-23T18:08:35.744Z,20.22
2022-11-23T18:13:38.820Z,20.25
2022-11-23T18:18:41.695Z,20.32
2022-11-23T18:23:45.943Z,20.33
2022-11-23T18:28:48.871Z,20.36
2022-11-23T18:33:51.716Z,20.39
2022-11-23T18:38:56.904Z,20.46
2022-11-23T18:43:59.704Z,20.44
2022-11-23T18:49:02.520Z,20.49
2022-11-23T18:54:06.978Z,20.49
2022-11-23T18:59:15.587Z,20.52
2022-11-23T19:04:34.259Z,20.54
2022-11-23T19:09:38.467Z,20.59
2022-11-23T19:14:41.504Z,20.60
2022-11-23T19:19:44.436Z,20.62
2022-11-23T19:24:49.070Z,20.58
2022-11-23T19:29:51.939Z,20.69
2022-11-23T19:34:55.344Z,20.67
2022-11-23T19:39:59.508Z,20.65
2022-11-23T19:45:02.405Z,20.68
2022-11-23T19:50:06.286Z,20.67
2022-11-23T19:55:10.721Z,20.69
2022-11-23T20:00:14.181Z,20.66
2022-11-23T20:05:17.486Z,20.71
2022-11-23T20:10:21.731Z,20.71
2022-11-23T20:15:24.614Z,20.71
2022-11-23T20:20:27.927Z,20.70
2022-11-23T20:25:32.167Z,20.71
2022-11-23T20:30:35.283Z,20.69
2022-11-23T20:35:38.604Z,20.73
2022-11-23T20:40:42.769Z,20.73
2022-11-23T20:45:45.550Z,20.70
2022-11-23T20:50:48.376Z,20.72
2022-11-23T20:55:52.881Z,20.71
2022-11-23T21:00:55.803Z,20.71
2022-11-23T21:05:58.861Z,20.69
2022-11-23T21:11:27.262Z,20.72
2022-11-23T21:16:30.136Z,20.67
2022-11-23T21:21:33.488Z,20.73
2022-11-23T21:26:37.868Z,20.72
2022-11-23T21:31:41.801Z,20.76
2022-11-23T21:36:44.672Z,20.79
2022-11-23T21:41:50.539Z,20.75
2022-11-23T21:46:53.798Z,20.78
2022-11-23T21:51:56.854Z,20.79
2022-11-23T21:57:01.156Z,20.74
2022-11-23T22:02:04.151Z,20.74
2022-11-23T22:07:07.300Z,20.79
2022-11-23T22:12:11.656Z,20.79
2022-11-23T22:17:14.565Z,20.82
2022-11-23T22:22:17.479Z,20.82
2022-11-23T22:27:21.794Z,20.80
2022-11-23T22:32:24.672Z,20.82
2022-11-23T22:37:27.576Z,20.79
2022-11-23T22:42:31.805Z,20.80
2022-11-23T22:47:34.699Z,20.79
2022-11-23T22:52:37.938Z,20.84
2022-11-23T22:57:42.221Z,20.82
2022-11-23T23:02:45.850Z,20.83
2022-11-23T23:07:48.956Z,20.81
2022-11-23T23:12:54.052Z,20.83
2022-11-23T23:17:56.901Z,20.83
2022-11-23T23:22:59.735Z,20.81
2022-11-23T23:28:04.411Z,20.82
2022-11-23T23:33:07.602Z,20.78
2022-11-23T23:38:10.448Z,20.78
2022-11-23T23:43:14.849Z,20.82
2022-11-23T23:48:17.666Z,20.81
2022-11-23T23:53:20.594Z,20.80
2022-11-23T23:58:24.826Z,20.83
